createdAt,value
2017-05-09T00:01:16.129Z,1.92
2017-05-09T00:03:46.711Z,2.02
2017-05-09T00:06:17.392Z,2.52
2017-05-09T00:08:48.521Z,2.20
2017-05-09T00:11:19.691Z,2.04
2017-05-09T00:13:50.345Z,1.92
2017-05-09T00:16:20.978Z,2.26
2017-05-09T00:18:51.571Z,2.04
2017-05-09T00:21:22.242Z,2.72
2017-05-09T00:23:52.952Z,2.22
2017-05-09T00:26:24.028Z,2.70
2017-05-09T00:28:55.615Z,2.30
2017-05-09T00:31:26.657Z,2.70
2017-05-09T00:33:57.452Z,2.50
2017-05-09T00:36:28.089Z,2.74
2017-05-09T00:38:59.028Z,2.46
2017-05-09T00:41:29.697Z,2.50
2017-05-09T00:44:00.653Z,2.62
2017-05-09T00:46:31.569Z,2.36
2017-05-09T00:49:02.324Z,2.90
2017-05-09T00:51:33.028Z,3.14
2017-05-09T00:54:03.940Z,3.00
2017-05-09T00:56:34.921Z,2.60
2017-05-09T00:59:05.689Z,3.14
2017-05-09T01:01:36.817Z,3.30
2017-05-09T01:04:07.627Z,2.62
2017-05-09T01:06:38.591Z,2.80
2017-05-09T01:09:09.314Z,3.10
2017-05-09T01:11:40.216Z,3.20
2017-05-09T01:14:10.918Z,2.40
2017-05-09T01:16:41.839Z,3.00
2017-05-09T01:19:12.438Z,2.62
2017-05-09T01:21:43.364Z,2.82
2017-05-09T01:24:14.100Z,2.56
2017-05-09T01:26:44.925Z,2.06
2017-05-09T01:29:16.814Z,2.72
2017-05-09T01:31:47.948Z,2.10
2017-05-09T01:34:18.499Z,2.16
2017-05-09T01:36:49.350Z,2.60
2017-05-09T01:39:19.861Z,2.22
2017-05-09T01:41:50.631Z,1.84
2017-05-09T01:44:21.419Z,2.36
2017-05-09T01:46:52.271Z,2.02
2017-05-09T01:49:22.989Z,2.26
2017-05-09T01:51:53.757Z,1.86
2017-05-09T01:54:24.609Z,2.64
2017-05-09T01:56:55.583Z,2.70
2017-05-09T01:59:27.598Z,2.50
2017-05-09T02:01:58.299Z,2.26
2017-05-09T02:04:30.014Z,2.20
2017-05-09T02:07:00.589Z,2.48
2017-05-09T02:09:31.687Z,2.30
2017-05-09T02:12:02.641Z,2.44
2017-05-09T02:14:33.551Z,2.74
2017-05-09T02:17:04.426Z,2.36
2017-05-09T02:19:35.750Z,2.78
2017-05-09T02:22:06.756Z,2.24
2017-05-09T02:24:37.496Z,2.12
2017-05-09T02:27:08.368Z,2.30
2017-05-09T02:29:40.439Z,2.26
2017-05-09T02:32:11.168Z,2.38
2017-05-09T02:34:41.672Z,2.22
2017-05-09T02:37:12.478Z,2.30
2017-05-09T02:39:43.304Z,1.72
2017-05-09T02:42:14.557Z,2.08
2017-05-09T02:44:45.170Z,1.60
2017-05-09T02:47:16.855Z,2.48
2017-05-09T02:49:47.845Z,2.10
2017-05-09T02:52:18.596Z,2.16
2017-05-09T02:54:48.971Z,1.76
2017-05-09T02:57:19.575Z,1.90
2017-05-09T02:59:50.608Z,1.96
2017-05-09T03:02:21.559Z,1.84
2017-05-09T03:04:52.454Z,2.14
2017-05-09T03:07:23.333Z,1.72
2017-05-09T03:09:54.090Z,1.90
2017-05-09T03:12:25.171Z,1.90
2017-05-09T03:14:56.158Z,2.00
2017-05-09T03:17:26.913Z,2.32
2017-05-09T03:19:57.425Z,2.88
2017-05-09T03:22:28.271Z,2.20
2017-05-09T03:24:58.994Z,2.00
2017-05-09T03:27:29.839Z,2.54
2017-05-09T03:30:01.467Z,2.42
2017-05-09T03:32:32.955Z,2.42
2017-05-09T03:35:03.699Z,2.60
2017-05-09T03:37:34.814Z,2.20
2017-05-09T03:40:05.470Z,1.86
2017-05-09T03:42:35.879Z,1.98
2017-05-09T03:45:06.698Z,2.08
2017-05-09T03:47:44.414Z,2.10
2017-05-09T03:50:15.706Z,1.86
2017-05-09T03:52:46.083Z,1.88
2017-05-09T03:55:16.907Z,1.90
2017-05-09T03:57:47.738Z,2.46
2017-05-09T04:00:19.365Z,2.22
2017-05-09T04:02:50.350Z,2.02
2017-05-09T04:05:21.069Z,1.88
2017-05-09T04:07:54.018Z,2.32
2017-05-09T04:10:25.459Z,2.60
2017-05-09T04:12:56.577Z,1.92
2017-05-09T04:15:27.441Z,2.22
2017-05-09T04:18:00.521Z,2.02
2017-05-09T04:20:31.275Z,1.62
2017-05-09T04:23:02.386Z,2.32
2017-05-09T04:25:32.962Z,2.08
2017-05-09T04:28:03.741Z,2.22
2017-05-09T04:30:35.638Z,2.34
2017-05-09T04:33:06.412Z,2.10
2017-05-09T04:35:38.005Z,2.96
2017-05-09T04:38:09.116Z,2.18
2017-05-09T04:40:40.614Z,2.94
2017-05-09T04:43:11.277Z,2.12
2017-05-09T04:45:41.976Z,2.70
2017-05-09T04:48:12.517Z,2.66
2017-05-09T04:50:42.679Z,2.30
2017-05-09T04:53:13.617Z,2.46
2017-05-09T04:55:44.582Z,2.52
2017-05-09T04:58:15.839Z,2.28
2017-05-09T05:00:46.347Z,2.48
2017-05-09T05:03:17.198Z,2.56
2017-05-09T05:05:47.930Z,2.06
2017-05-09T05:08:18.629Z,2.14
2017-05-09T05:10:49.520Z,2.90
2017-05-09T05:13:20.147Z,2.14
2017-05-09T05:15:50.952Z,2.36
2017-05-09T05:18:21.912Z,2.26
2017-05-09T05:20:53.192Z,2.36
2017-05-09T05:23:24.180Z,2.08
2017-05-09T05:25:55.011Z,2.36
2017-05-09T05:28:25.954Z,2.18
2017-05-09T05:30:57.478Z,1.88
2017-05-09T05:33:28.489Z,2.50
2017-05-09T05:35:59.125Z,1.64
2017-05-09T05:38:29.708Z,2.12
2017-05-09T05:41:00.336Z,2.10
2017-05-09T05:43:32.326Z,1.78
2017-05-09T05:46:03.237Z,1.82
2017-05-09T05:48:34.710Z,2.00
2017-05-09T05:51:05.129Z,1.74
2017-05-09T05:53:35.919Z,1.90
2017-05-09T05:56:06.704Z,2.62
2017-05-09T05:58:37.815Z,2.10
2017-05-09T06:01:08.748Z,2.26
2017-05-09T06:03:39.844Z,2.60
2017-05-09T06:06:10.707Z,1.68
2017-05-09T06:08:41.392Z,2.04
2017-05-09T06:11:11.778Z,2.36
2017-05-09T06:13:42.501Z,2.10
2017-05-09T06:16:13.311Z,2.20
2017-05-09T06:18:43.988Z,2.20
2017-05-09T06:21:15.007Z,2.54
2017-05-09T06:23:45.885Z,2.16
2017-05-09T06:26:16.296Z,2.48
2017-05-09T06:28:46.981Z,2.68
2017-05-09T06:31:19.114Z,2.58
2017-05-09T06:33:49.980Z,2.10
2017-05-09T06:36:20.827Z,2.46
2017-05-09T06:38:51.748Z,2.12
2017-05-09T06:41:22.441Z,2.50
2017-05-09T06:43:53.379Z,2.24
2017-05-09T06:46:23.997Z,2.30
2017-05-09T06:48:54.800Z,2.30
2017-05-09T06:51:25.513Z,1.94
2017-05-09T06:53:56.278Z,2.26
2017-05-09T06:56:27.104Z,2.54
2017-05-09T06:58:57.886Z,2.58
2017-05-09T07:01:28.406Z,2.66
2017-05-09T07:03:58.859Z,2.60
2017-05-09T07:06:29.606Z,2.24
2017-05-09T07:09:00.461Z,2.04
2017-05-09T07:11:31.226Z,2.34
2017-05-09T07:14:01.993Z,2.18
2017-05-09T07:16:32.618Z,2.42
2017-05-09T07:19:03.502Z,2.16
2017-05-09T07:21:34.462Z,1.98
2017-05-09T07:24:05.227Z,2.68
2017-05-09T07:26:36.986Z,2.20
2017-05-09T07:29:08.744Z,2.86
2017-05-09T07:31:40.471Z,2.54
2017-05-09T07:34:11.084Z,2.30
2017-05-09T07:36:41.873Z,2.18
2017-05-09T07:39:12.682Z,2.20
2017-05-09T07:41:43.382Z,2.08
2017-05-09T07:44:14.310Z,2.16
2017-05-09T07:46:45.134Z,2.38
2017-05-09T07:49:15.958Z,2.06
2017-05-09T07:51:46.142Z,2.60
2017-05-09T07:54:16.911Z,2.36
2017-05-09T07:56:47.900Z,2.50
2017-05-09T07:59:18.706Z,2.50
2017-05-09T08:01:49.622Z,2.08
2017-05-09T08:04:21.366Z,2.52
2017-05-09T08:06:51.973Z,2.60
2017-05-09T08:09:22.745Z,2.12
2017-05-09T08:11:54.527Z,2.76
2017-05-09T08:14:25.354Z,2.32
2017-05-09T08:16:56.987Z,2.02
2017-05-09T08:19:27.675Z,2.62
2017-05-09T08:21:58.364Z,2.02
2017-05-09T08:24:29.344Z,2.12
2017-05-09T08:26:59.864Z,2.38
2017-05-09T08:29:30.364Z,2.60
2017-05-09T08:32:02.471Z,2.80
2017-05-09T08:34:33.249Z,3.16
2017-05-09T08:37:04.011Z,8.20
2017-05-09T08:39:35.016Z,5.26
2017-05-09T08:42:05.826Z,3.06
2017-05-09T08:44:36.684Z,3.74
2017-05-09T08:47:07.502Z,3.68
2017-05-09T08:49:37.830Z,3.86
2017-05-09T08:52:08.654Z,3.14
2017-05-09T08:54:39.707Z,3.56
2017-05-09T08:57:10.488Z,4.20
2017-05-09T08:59:41.643Z,4.20
2017-05-09T09:02:12.222Z,3.78
2017-05-09T09:04:42.887Z,3.56
2017-05-09T09:07:13.887Z,4.00
2017-05-09T09:09:44.485Z,3.62
2017-05-09T09:12:15.619Z,4.10
2017-05-09T09:14:46.723Z,3.18
2017-05-09T09:17:17.531Z,3.44
2017-05-09T09:19:48.061Z,3.02
2017-05-09T09:22:18.708Z,3.50
2017-05-09T09:24:49.396Z,3.40
2017-05-09T09:27:19.768Z,2.66
2017-05-09T09:29:50.873Z,3.32
2017-05-09T09:32:22.722Z,3.58
2017-05-09T09:34:53.729Z,2.72
2017-05-09T09:37:24.367Z,2.98
2017-05-09T09:39:55.160Z,2.82
2017-05-09T09:42:26.115Z,2.88
2017-05-09T09:44:56.745Z,2.60
2017-05-09T09:47:27.405Z,3.54
2017-05-09T09:49:58.134Z,3.20
2017-05-09T09:52:28.475Z,2.70
2017-05-09T09:54:59.328Z,2.50
2017-05-09T09:57:30.287Z,3.20
2017-05-09T10:00:00.995Z,3.05
2017-05-09T10:02:31.800Z,2.48
2017-05-09T10:05:02.719Z,2.90
2017-05-09T10:07:33.282Z,2.80
2017-05-09T10:10:04.090Z,2.90
2017-05-09T10:12:35.030Z,2.94
2017-05-09T10:15:05.847Z,3.52
2017-05-09T10:17:36.702Z,2.88
2017-05-09T10:20:07.235Z,2.76
2017-05-09T10:22:37.948Z,3.46
2017-05-09T10:25:08.871Z,3.44
2017-05-09T10:27:39.438Z,3.40
2017-05-09T10:30:10.144Z,2.76
2017-05-09T10:32:41.919Z,3.02
2017-05-09T10:35:12.668Z,3.10
2017-05-09T10:37:43.442Z,3.16
2017-05-09T10:40:14.359Z,3.43
2017-05-09T10:42:45.410Z,3.12
2017-05-09T10:45:16.087Z,3.08
2017-05-09T10:47:46.949Z,3.70
2017-05-09T10:50:18.618Z,3.35
2017-05-09T10:52:49.510Z,3.90
2017-05-09T10:55:20.274Z,3.86
2017-05-09T10:57:50.845Z,4.27
2017-05-09T11:00:21.905Z,3.60
2017-05-09T11:02:52.728Z,4.08
2017-05-09T11:05:23.589Z,3.50
2017-05-09T11:07:54.065Z,2.98
2017-05-09T11:10:24.907Z,4.05
2017-05-09T11:12:55.628Z,2.58
2017-05-09T11:15:26.392Z,3.00
2017-05-09T11:17:57.427Z,3.70
2017-05-09T11:20:28.566Z,3.18
2017-05-09T11:22:59.611Z,3.53
2017-05-09T11:25:31.032Z,3.27
2017-05-09T11:28:01.899Z,3.03
2017-05-09T11:30:33.243Z,3.68
2017-05-09T11:33:04.741Z,3.84
2017-05-09T11:35:35.627Z,3.88
2017-05-09T11:38:06.318Z,3.53
2017-05-09T11:40:37.204Z,3.88
2017-05-09T11:43:08.035Z,3.53
2017-05-09T11:45:38.594Z,3.73
2017-05-09T11:48:09.462Z,3.95
2017-05-09T11:50:40.137Z,3.87
2017-05-09T11:53:10.872Z,4.42
2017-05-09T11:55:41.453Z,4.37
2017-05-09T11:58:11.885Z,4.68
2017-05-09T12:00:42.908Z,5.68
2017-05-09T12:03:13.839Z,5.92
2017-05-09T12:05:44.764Z,5.33
2017-05-09T12:08:16.265Z,5.73
2017-05-09T12:10:47.003Z,5.47
2017-05-09T12:13:17.642Z,5.30
2017-05-09T12:15:48.346Z,5.25
2017-05-09T12:18:18.975Z,6.28
2017-05-09T12:20:49.740Z,5.17
2017-05-09T12:23:20.751Z,5.63
2017-05-09T12:25:51.848Z,4.98
2017-05-09T12:28:22.492Z,5.22
2017-05-09T12:30:53.551Z,5.52
2017-05-09T12:33:25.957Z,5.10
2017-05-09T12:35:56.953Z,5.25
2017-05-09T12:38:28.325Z,4.88
2017-05-09T12:40:59.518Z,5.22
2017-05-09T12:43:30.330Z,4.58
2017-05-09T12:46:01.222Z,5.40
2017-05-09T12:48:31.770Z,4.47
2017-05-09T12:51:03.277Z,4.77
2017-05-09T12:53:33.755Z,4.90
2017-05-09T12:56:04.313Z,4.65
2017-05-09T12:58:35.028Z,5.07
2017-05-09T13:01:05.865Z,3.95
2017-05-09T13:03:36.660Z,5.35
2017-05-09T13:06:07.553Z,6.13
2017-05-09T13:08:38.221Z,5.67
2017-05-09T13:11:08.960Z,5.58
2017-05-09T13:13:39.628Z,5.43
2017-05-09T13:16:10.609Z,5.60
2017-05-09T13:18:41.215Z,6.18
2017-05-09T13:21:11.817Z,6.17
2017-05-09T13:23:43.311Z,5.68
2017-05-09T13:26:14.135Z,5.83
2017-05-09T13:28:45.102Z,5.88
2017-05-09T13:31:16.240Z,5.80
2017-05-09T13:33:48.331Z,6.02
2017-05-09T13:36:19.303Z,6.12
2017-05-09T13:38:50.258Z,6.42
2017-05-09T13:41:21.362Z,6.45
2017-05-09T13:43:52.358Z,6.08
2017-05-09T13:46:23.145Z,6.03
2017-05-09T13:48:54.507Z,6.67
2017-05-09T13:51:25.417Z,6.40
2017-05-09T13:53:56.211Z,6.62
2017-05-09T13:56:26.943Z,5.78
2017-05-09T13:58:57.685Z,6.20
2017-05-09T14:01:28.589Z,5.68
2017-05-09T14:03:59.620Z,6.48
2017-05-09T14:06:31.028Z,6.00
2017-05-09T14:09:01.605Z,5.94
2017-05-09T14:11:32.673Z,6.58
2017-05-09T14:14:03.369Z,5.04
2017-05-09T14:16:34.503Z,6.16
2017-05-09T14:21:41.350Z,4.98
2017-05-09T14:24:11.763Z,5.18
2017-05-09T14:26:42.127Z,5.58
2017-05-09T14:29:12.530Z,6.40
2017-05-09T14:31:43.305Z,5.34
2017-05-09T14:34:14.813Z,5.58
2017-05-09T14:36:45.561Z,5.24
2017-05-09T14:39:16.565Z,4.98
2017-05-09T14:41:47.386Z,5.92
2017-05-09T14:44:18.188Z,6.06
2017-05-09T14:46:48.900Z,6.28
2017-05-09T14:49:20.046Z,5.50
2017-05-09T14:51:50.631Z,6.30
2017-05-09T14:54:21.453Z,6.02
2017-05-09T14:56:52.221Z,5.42
2017-05-09T14:59:22.967Z,5.72
2017-05-09T15:01:53.808Z,5.78
2017-05-09T15:04:24.458Z,5.30
2017-05-09T15:06:55.138Z,5.62
2017-05-09T15:09:26.025Z,6.22
2017-05-09T15:11:56.410Z,5.34
2017-05-09T15:14:27.303Z,5.70
2017-05-09T15:16:58.161Z,5.22
2017-05-09T15:19:28.936Z,5.30
2017-05-09T15:21:59.931Z,5.18
2017-05-09T15:24:31.260Z,4.70
2017-05-09T15:27:02.112Z,4.44
2017-05-09T15:29:32.899Z,4.86
2017-05-09T15:32:03.681Z,5.54
2017-05-09T15:34:35.751Z,4.58
2017-05-09T15:37:06.510Z,5.28
2017-05-09T15:39:37.379Z,5.20
2017-05-09T15:42:08.227Z,5.30
2017-05-09T15:44:39.111Z,4.94
2017-05-09T15:47:10.125Z,4.76
2017-05-09T15:49:40.748Z,4.48
2017-05-09T15:52:11.309Z,4.24
2017-05-09T15:54:41.875Z,5.16
2017-05-09T15:57:12.594Z,5.36
2017-05-09T15:59:43.322Z,5.92
2017-05-09T16:02:13.959Z,5.02
2017-05-09T16:04:44.924Z,5.68
2017-05-09T16:07:15.585Z,5.42
2017-05-09T16:09:46.363Z,4.52
2017-05-09T16:12:17.278Z,4.40
2017-05-09T16:14:47.905Z,5.86
2017-05-09T16:17:18.887Z,4.58
2017-05-09T16:19:50.335Z,4.94
2017-05-09T16:22:21.871Z,4.62
2017-05-09T16:24:52.571Z,4.60
2017-05-09T16:27:23.342Z,4.40
2017-05-09T16:29:55.164Z,4.52
2017-05-09T16:32:25.749Z,3.98
2017-05-09T16:34:58.071Z,4.38
2017-05-09T16:37:28.782Z,4.64
2017-05-09T16:39:59.626Z,4.08
2017-05-09T16:42:30.591Z,4.44
2017-05-09T16:45:01.375Z,3.98
2017-05-09T16:47:32.140Z,4.16
2017-05-09T16:50:03.088Z,3.64
2017-05-09T16:52:34.073Z,3.90
2017-05-09T16:55:04.905Z,4.02
2017-05-09T16:57:35.661Z,4.32
2017-05-09T17:00:06.329Z,4.18
2017-05-09T17:02:37.179Z,4.02
2017-05-09T17:05:08.203Z,3.68
2017-05-09T17:07:38.923Z,2.86
2017-05-09T17:10:09.771Z,4.06
2017-05-09T17:12:40.907Z,3.78
2017-05-09T17:15:11.634Z,3.40
2017-05-09T17:17:42.483Z,2.82
2017-05-09T17:20:13.355Z,3.00
2017-05-09T17:22:44.304Z,3.50
2017-05-09T17:25:15.061Z,3.80
2017-05-09T17:27:46.050Z,3.68
2017-05-09T17:30:16.732Z,2.86
2017-05-09T17:32:47.718Z,3.14
2017-05-09T17:35:18.775Z,3.42
2017-05-09T17:37:49.477Z,3.16
2017-05-09T17:40:20.208Z,3.80
2017-05-09T17:42:50.880Z,3.56
2017-05-09T17:45:22.019Z,3.54
2017-05-09T17:47:52.923Z,3.22
2017-05-09T17:50:23.780Z,3.36
2017-05-09T17:52:54.799Z,3.18
2017-05-09T17:55:25.769Z,3.14
2017-05-09T17:57:56.627Z,5.36
2017-05-09T18:00:27.294Z,3.68
2017-05-09T18:02:58.473Z,3.42
2017-05-09T18:05:29.075Z,2.40
2017-05-09T18:07:59.922Z,3.14
2017-05-09T18:10:30.904Z,3.08
2017-05-09T18:13:01.720Z,3.50
2017-05-09T18:15:32.488Z,3.20
2017-05-09T18:18:03.213Z,3.10
2017-05-09T18:20:34.118Z,3.38
2017-05-09T18:23:04.830Z,3.20
2017-05-09T18:25:35.568Z,3.22
2017-05-09T18:28:06.231Z,2.72
2017-05-09T18:30:36.859Z,2.98
2017-05-09T18:33:07.607Z,2.50
2017-05-09T18:35:39.170Z,2.96
2017-05-09T18:38:10.001Z,3.60
2017-05-09T18:40:40.668Z,3.04
2017-05-09T18:43:11.312Z,2.82
2017-05-09T18:45:41.939Z,2.60
2017-05-09T18:48:13.594Z,2.48
2017-05-09T18:50:43.926Z,2.68
2017-05-09T18:53:15.275Z,3.02
2017-05-09T18:55:46.118Z,2.70
2017-05-09T18:58:16.956Z,3.92
2017-05-09T19:00:47.701Z,2.80
2017-05-09T19:03:18.610Z,2.50
2017-05-09T19:05:49.287Z,2.98
2017-05-09T19:08:19.906Z,2.40
2017-05-09T19:10:50.819Z,2.78
2017-05-09T19:13:21.833Z,2.64
2017-05-09T19:15:52.687Z,3.32
2017-05-09T19:18:23.250Z,2.92
2017-05-09T19:20:54.026Z,3.46
2017-05-09T19:23:24.844Z,3.38
2017-05-09T19:25:55.441Z,3.10
2017-05-09T19:28:26.529Z,3.24
2017-05-09T19:30:57.107Z,2.84
2017-05-09T19:33:27.924Z,2.90
2017-05-09T19:36:00.454Z,3.28
2017-05-09T19:38:34.991Z,2.80
2017-05-09T19:41:05.593Z,2.38
2017-05-09T19:43:36.239Z,2.76
2017-05-09T19:46:07.348Z,2.34
2017-05-09T19:48:38.258Z,2.54
2017-05-09T19:51:09.173Z,2.80
2017-05-09T19:53:39.846Z,2.76
2017-05-09T19:56:10.608Z,2.86
2017-05-09T19:58:41.203Z,3.00
2017-05-09T20:01:12.023Z,2.92
2017-05-09T20:03:42.810Z,2.62
2017-05-09T20:06:13.530Z,2.76
2017-05-09T20:08:43.954Z,3.22
2017-05-09T20:11:14.861Z,2.54
2017-05-09T20:13:45.840Z,2.52
2017-05-09T20:16:16.623Z,2.40
2017-05-09T20:18:47.205Z,2.32
2017-05-09T20:21:17.736Z,3.36
2017-05-09T20:23:48.537Z,2.26
2017-05-09T20:26:20.026Z,2.28
2017-05-09T20:28:50.881Z,2.70
2017-05-09T20:31:21.348Z,2.74
2017-05-09T20:33:52.077Z,2.40
2017-05-09T20:36:23.370Z,3.02
2017-05-09T20:38:54.173Z,2.58
2017-05-09T20:41:24.749Z,2.82
2017-05-09T20:43:55.545Z,3.02
2017-05-09T20:46:27.257Z,3.06
2017-05-09T20:48:58.223Z,2.32
2017-05-09T20:51:29.051Z,3.10
2017-05-09T20:53:59.811Z,2.48
2017-05-09T20:56:31.091Z,2.72
2017-05-09T20:59:01.835Z,2.84
2017-05-09T21:01:32.582Z,2.78
2017-05-09T21:04:03.499Z,2.88
2017-05-09T21:06:34.325Z,2.90
2017-05-09T21:09:05.289Z,3.40
2017-05-09T21:11:35.787Z,2.74
2017-05-09T21:14:13.771Z,2.98
2017-05-09T21:16:44.280Z,2.82
2017-05-09T21:19:15.149Z,3.34
2017-05-09T21:21:46.007Z,2.50
2017-05-09T21:24:16.935Z,2.70
2017-05-09T21:26:47.702Z,3.28
2017-05-09T21:29:18.648Z,3.02
2017-05-09T21:31:49.219Z,2.98
2017-05-09T21:34:20.319Z,3.08
2017-05-09T21:36:51.957Z,3.02
2017-05-09T21:39:22.671Z,3.28
2017-05-09T21:41:53.405Z,2.92
2017-05-09T21:44:23.644Z,3.10
2017-05-09T21:46:54.289Z,2.78
2017-05-09T21:49:25.364Z,3.14
2017-05-09T21:51:55.987Z,2.64
2017-05-09T21:54:27.012Z,2.90
2017-05-09T21:56:57.870Z,3.06
2017-05-09T21:59:29.026Z,3.38
2017-05-09T22:02:00.054Z,2.42
2017-05-09T22:04:31.044Z,3.52
2017-05-09T22:07:01.930Z,2.96
2017-05-09T22:09:32.826Z,3.18
2017-05-09T22:12:03.468Z,2.92
2017-05-09T22:14:34.332Z,3.24
2017-05-09T22:17:05.025Z,3.02
2017-05-09T22:19:36.000Z,3.28
2017-05-09T22:22:06.888Z,3.24
2017-05-09T22:24:37.836Z,3.04
2017-05-09T22:27:08.707Z,3.68
2017-05-09T22:29:39.764Z,2.98
2017-05-09T22:32:10.694Z,2.90
2017-05-09T22:34:41.373Z,3.20
2017-05-09T22:37:13.254Z,2.86
2017-05-09T22:39:43.814Z,3.28
2017-05-09T22:42:14.761Z,2.98
2017-05-09T22:44:45.579Z,2.46
2017-05-09T22:47:16.143Z,2.70
2017-05-09T22:49:46.949Z,3.38
2017-05-09T22:52:17.581Z,3.10
2017-05-09T22:54:48.303Z,3.16
2017-05-09T22:57:19.036Z,3.16
2017-05-09T22:59:49.747Z,3.52
2017-05-09T23:02:20.436Z,2.94
2017-05-09T23:04:51.011Z,3.28
2017-05-09T23:07:21.733Z,3.12
2017-05-09T23:09:52.345Z,3.08
2017-05-09T23:12:23.233Z,2.88
2017-05-09T23:14:53.897Z,2.70
2017-05-09T23:17:24.892Z,3.20
2017-05-09T23:19:55.718Z,2.92
2017-05-09T23:22:27.204Z,2.60
2017-05-09T23:24:58.048Z,3.22
2017-05-09T23:27:28.913Z,3.22
2017-05-09T23:29:59.366Z,2.84
2017-05-09T23:32:30.127Z,3.14
2017-05-09T23:35:00.966Z,3.00
2017-05-09T23:37:33.266Z,3.28
2017-05-09T23:40:03.838Z,2.92
2017-05-09T23:42:34.717Z,2.96
2017-05-09T23:45:05.551Z,3.72
2017-05-09T23:47:36.188Z,3.18
2017-05-09T23:50:07.008Z,3.34
2017-05-09T23:52:37.719Z,2.80
2017-05-09T23:55:08.475Z,3.24
2017-05-09T23:57:39.234Z,3.00
